Michipicoten — CFG8060 — position and weather

sailwx.info

Track history (hours):
 
Tides and Currents Weather Stations Pressure Air Temp Water Temp Dewpoint Dewpoint Depression Visibility Wind Speed Wind Dir Waves Ship Positions

Michipicoten

Last reported at 2016-Oct-01 04:33 UTC. Time now 2016-Oct-01 12:12 UTC.
Position N 45°58' W 085°52'.

Length 213 m; draft 6.7 m.

Type: Cargo ship. MMSI: 316002501.

Date/timePositionNaut miles runAvg speedWind from/ knotsBaromVisibWave heightAir tempDewpointWater temp
2016-Oct-01 04:33N 45°58' W 085°52'0 0.0
2016-Oct-01 03:33N 45°58' W 085°52'0 0.0
2016-Oct-01 00:34N 45°58' W 085°52'0 0.0
2016-Sep-30 22:33N 45°58' W 085°52'14 7.1
2016-Sep-30 20:33N 45°53' W 085°33'4113.7
2016-Sep-30 17:33N 45°51' W 084°34'1414.1
2016-Sep-30 16:33N 45°51' W 084°14'2713.7
2016-Sep-30 14:32N 45°41' W 083°37'35 0.9
2016-Sep-29 00:33N 45°51' W 084°25'3311.0
2016-Sep-28 21:33N 46°00' W 085°10'3 1.5
2016-Sep-28 19:33N 46°02' W 085°06'0 0.0
2016-Sep-28 16:33N 46°02' W 085°06'0 0.0
2016-Sep-28 15:33N 46°02' W 085°06'0 0.0
2016-Sep-28 12:33N 46°02' W 085°06'6 1.6
2016-Sep-28 08:33N 45°55' W 085°06'  
2016-Sep-26 01:28N 46°07' W 083°32'1410.3
2016-Sep-26 00:06N 46°17' W 083°46'1 0.1
2016-Sep-25 16:15N 46°17' W 083°46'0 0.0
2016-Sep-25 14:27N 46°18' W 083°46'0 0.1
2016-Sep-25 12:32N 46°17' W 083°46'4 3.4
2016-Sep-25 11:28N 46°14' W 083°45'910.0
2016-Sep-25 10:33N 46°05' W 083°50'8 7.5
2016-Sep-25 09:32N 46°07' W 084°01'  
2016-Sep-22 04:24N 46°48' W 085°29'4511.6
2016-Sep-22 00:32N 46°27' W 084°30'7 6.7
2016-Sep-21 23:33N 46°31' W 084°23'0 0.0
2016-Sep-21 22:25N 46°31' W 084°23'  
Track history (hours):
 
Tides and Currents Weather Stations Pressure Air Temp Water Temp Dewpoint Dewpoint Depression Visibility Wind Speed Wind Dir Waves Ship Positions

Michipicoten

Last reported at 2016-Oct-01 04:33 UTC. Time now 2016-Oct-01 12:12 UTC.
Position N 45°58' W 085°52'.

Length 213 m; draft 6.7 m.

Type: Cargo ship. MMSI: 316002501.

Date/timePositionNaut miles runAvg speedWind from/ knotsBaromVisibWave heightAir tempDewpointWater temp
2016-Oct-01 04:33N 45°58' W 085°52'0 0.0
2016-Oct-01 03:33N 45°58' W 085°52'0 0.0
2016-Oct-01 00:34N 45°58' W 085°52'0 0.0
2016-Sep-30 22:33N 45°58' W 085°52'14 7.1
2016-Sep-30 20:33N 45°53' W 085°33'4113.7
2016-Sep-30 17:33N 45°51' W 084°34'1414.1
2016-Sep-30 16:33N 45°51' W 084°14'2713.7
2016-Sep-30 14:32N 45°41' W 083°37'35 0.9
2016-Sep-29 00:33N 45°51' W 084°25'3311.0
2016-Sep-28 21:33N 46°00' W 085°10'3 1.5
2016-Sep-28 19:33N 46°02' W 085°06'0 0.0
2016-Sep-28 16:33N 46°02' W 085°06'0 0.0
2016-Sep-28 15:33N 46°02' W 085°06'0 0.0
2016-Sep-28 12:33N 46°02' W 085°06'6 1.6
2016-Sep-28 08:33N 45°55' W 085°06'  
2016-Sep-26 01:28N 46°07' W 083°32'1410.3
2016-Sep-26 00:06N 46°17' W 083°46'1 0.1
2016-Sep-25 16:15N 46°17' W 083°46'0 0.0
2016-Sep-25 14:27N 46°18' W 083°46'0 0.1
2016-Sep-25 12:32N 46°17' W 083°46'4 3.4
2016-Sep-25 11:28N 46°14' W 083°45'910.0
2016-Sep-25 10:33N 46°05' W 083°50'8 7.5
2016-Sep-25 09:32N 46°07' W 084°01'  
2016-Sep-22 04:24N 46°48' W 085°29'4511.6
2016-Sep-22 00:32N 46°27' W 084°30'7 6.7
2016-Sep-21 23:33N 46°31' W 084°23'0 0.0
2016-Sep-21 22:25N 46°31' W 084°23'  

Dump ship's entire track history